sensor_id;sensor_type;location;lat;lon;timestamp;P1;durP1;ratioP1;P2;durP2;ratioP2
23400;SDS011;11873;49.300;8.920;2022-11-04T00:02:00;1.20;;;1.13;;
23400;SDS011;11873;49.300;8.920;2022-11-04T00:07:00;2.03;;;1.03;;
23400;SDS011;11873;49.300;8.920;2022-11-04T00:12:01;0.80;;;0.80;;
23400;SDS011;11873;49.300;8.920;2022-11-04T00:17:01;1.80;;;1.27;;
23400;SDS011;11873;49.300;8.920;2022-11-04T00:22:02;1.37;;;1.27;;
23400;SDS011;11873;49.300;8.920;2022-11-04T00:27:02;1.23;;;0.90;;
23400;SDS011;11873;49.300;8.920;2022-11-04T00:32:02;1.13;;;1.03;;
23400;SDS011;11873;49.300;8.920;2022-11-04T00:37:02;0.90;;;0.90;;
23400;SDS011;11873;49.300;8.920;2022-11-04T00:42:03;1.47;;;0.93;;
23400;SDS011;11873;49.300;8.920;2022-11-04T00:47:03;1.00;;;1.00;;
23400;SDS011;11873;49.300;8.920;2022-11-04T00:52:03;3.40;;;1.00;;
23400;SDS011;11873;49.300;8.920;2022-11-04T00:57:03;0.88;;;0.80;;
23400;SDS011;11873;49.300;8.920;2022-11-04T01:02:04;0.93;;;0.93;;
23400;SDS011;11873;49.300;8.920;2022-11-04T01:07:04;0.80;;;0.80;;
23400;SDS011;11873;49.300;8.920;2022-11-04T01:12:04;0.80;;;0.80;;
23400;SDS011;11873;49.300;8.920;2022-11-04T01:17:04;0.80;;;0.80;;
23400;SDS011;11873;49.300;8.920;2022-11-04T01:22:04;1.07;;;1.07;;
23400;SDS011;11873;49.300;8.920;2022-11-04T01:27:05;0.70;;;0.70;;
23400;SDS011;11873;49.300;8.920;2022-11-04T01:32:05;1.80;;;0.80;;
23400;SDS011;11873;49.300;8.920;2022-11-04T01:37:05;0.97;;;0.87;;
23400;SDS011;11873;49.300;8.920;2022-11-04T01:42:05;0.73;;;0.70;;
23400;SDS011;11873;49.300;8.920;2022-11-04T01:47:08;1.30;;;0.80;;
23400;SDS011;11873;49.300;8.920;2022-11-04T01:52:15;1.23;;;1.07;;
23400;SDS011;11873;49.300;8.920;2022-11-04T01:57:18;1.07;;;0.90;;
23400;SDS011;11873;49.300;8.920;2022-11-04T02:02:19;1.43;;;1.00;;
23400;SDS011;11873;49.300;8.920;2022-11-04T02:07:19;1.17;;;0.90;;
23400;SDS011;11873;49.300;8.920;2022-11-04T02:12:20;1.43;;;0.77;;
23400;SDS011;11873;49.300;8.920;2022-11-04T02:17:36;3.27;;;1.00;;
23400;SDS011;11873;49.300;8.920;2022-11-04T02:22:44;0.80;;;0.70;;
23400;SDS011;11873;49.300;8.920;2022-11-04T02:38:31;0.93;;;0.70;;
23400;SDS011;11873;49.300;8.920;2022-11-04T02:48:49;0.83;;;0.83;;
23400;SDS011;11873;49.300;8.920;2022-11-04T02:54:11;0.97;;;0.90;;
23400;SDS011;11873;49.300;8.920;2022-11-04T02:59:14;0.77;;;0.60;;
23400;SDS011;11873;49.300;8.920;2022-11-04T03:04:18;1.00;;;0.90;;
23400;SDS011;11873;49.300;8.920;2022-11-04T03:09:20;3.50;;;0.80;;
23400;SDS011;11873;49.300;8.920;2022-11-04T03:14:29;1.87;;;0.90;;
23400;SDS011;11873;49.300;8.920;2022-11-04T03:19:41;3.80;;;1.00;;
23400;SDS011;11873;49.300;8.920;2022-11-04T03:24:43;1.00;;;0.90;;
23400;SDS011;11873;49.300;8.920;2022-11-04T03:29:48;1.50;;;1.10;;
23400;SDS011;11873;49.300;8.920;2022-11-04T03:34:50;0.97;;;0.70;;
23400;SDS011;11873;49.300;8.920;2022-11-04T03:39:50;1.40;;;0.90;;
23400;SDS011;11873;49.300;8.920;2022-11-04T03:44:51;2.33;;;0.70;;
23400;SDS011;11873;49.300;8.920;2022-11-04T03:49:54;2.50;;;1.00;;
23400;SDS011;11873;49.300;8.920;2022-11-04T03:54:56;1.53;;;0.90;;
23400;SDS011;11873;49.300;8.920;2022-11-04T04:00:04;3.70;;;1.10;;
23400;SDS011;11873;49.300;8.920;2022-11-04T04:05:10;1.07;;;1.07;;
23400;SDS011;11873;49.300;8.920;2022-11-04T04:10:12;0.90;;;0.80;;
23400;SDS011;11873;49.300;8.920;2022-11-04T04:15:17;1.77;;;0.97;;
23400;SDS011;11873;49.300;8.920;2022-11-04T04:20:20;1.90;;;1.10;;
23400;SDS011;11873;49.300;8.920;2022-11-04T04:25:22;3.90;;;1.67;;
23400;SDS011;11873;49.300;8.920;2022-11-04T04:30:24;1.97;;;1.23;;
23400;SDS011;11873;49.300;8.920;2022-11-04T04:35:25;4.93;;;0.90;;
23400;SDS011;11873;49.300;8.920;2022-11-04T04:40:26;2.67;;;1.10;;
23400;SDS011;11873;49.300;8.920;2022-11-04T04:45:31;4.50;;;1.27;;
23400;SDS011;11873;49.300;8.920;2022-11-04T04:50:34;1.83;;;1.40;;
23400;SDS011;11873;49.300;8.920;2022-11-04T04:55:35;1.60;;;0.83;;
23400;SDS011;11873;49.300;8.920;2022-11-04T05:00:35;1.17;;;0.73;;
23400;SDS011;11873;49.300;8.920;2022-11-04T05:05:35;2.23;;;0.90;;
23400;SDS011;11873;49.300;8.920;2022-11-04T05:10:35;1.30;;;0.93;;
23400;SDS011;11873;49.300;8.920;2022-11-04T05:15:35;3.97;;;2.00;;
23400;SDS011;11873;49.300;8.920;2022-11-04T05:20:36;3.70;;;2.73;;
23400;SDS011;11873;49.300;8.920;2022-11-04T05:25:39;2.80;;;2.60;;
23400;SDS011;11873;49.300;8.920;2022-11-04T05:30:40;4.23;;;1.50;;
23400;SDS011;11873;49.300;8.920;2022-11-04T05:35:40;3.40;;;1.30;;
23400;SDS011;11873;49.300;8.920;2022-11-04T05:40:40;2.93;;;1.37;;
23400;SDS011;11873;49.300;8.920;2022-11-04T05:45:40;2.23;;;1.40;;
23400;SDS011;11873;49.300;8.920;2022-11-04T05:50:40;15.30;;;8.53;;
23400;SDS011;11873;49.300;8.920;2022-11-04T05:55:41;3.50;;;2.20;;
23400;SDS011;11873;49.300;8.920;2022-11-04T06:00:41;1.97;;;1.30;;
23400;SDS011;11873;49.300;8.920;2022-11-04T06:05:41;1.53;;;1.20;;
23400;SDS011;11873;49.300;8.920;2022-11-04T06:10:41;3.30;;;1.70;;
23400;SDS011;11873;49.300;8.920;2022-11-04T06:15:42;4.33;;;2.67;;
23400;SDS011;11873;49.300;8.920;2022-11-04T06:20:42;3.73;;;1.63;;
23400;SDS011;11873;49.300;8.920;2022-11-04T06:25:42;2.03;;;1.57;;
23400;SDS011;11873;49.300;8.920;2022-11-04T06:30:42;2.33;;;1.57;;
23400;SDS011;11873;49.300;8.920;2022-11-04T06:35:42;4.87;;;2.30;;
23400;SDS011;11873;49.300;8.920;2022-11-04T06:40:43;3.80;;;2.17;;
23400;SDS011;11873;49.300;8.920;2022-11-04T06:45:43;2.17;;;1.87;;
23400;SDS011;11873;49.300;8.920;2022-11-04T06:50:43;2.20;;;1.37;;
23400;SDS011;11873;49.300;8.920;2022-11-04T06:55:43;4.37;;;1.50;;
23400;SDS011;11873;49.300;8.920;2022-11-04T07:00:49;6.07;;;1.83;;
23400;SDS011;11873;49.300;8.920;2022-11-04T07:05:49;3.73;;;1.40;;
23400;SDS011;11873;49.300;8.920;2022-11-04T07:10:49;3.23;;;2.60;;
23400;SDS011;11873;49.300;8.920;2022-11-04T07:15:49;3.30;;;2.03;;
23400;SDS011;11873;49.300;8.920;2022-11-04T07:20:49;1.37;;;1.27;;
23400;SDS011;11873;49.300;8.920;2022-11-04T07:25:50;1.10;;;0.97;;
23400;SDS011;11873;49.300;8.920;2022-11-04T07:30:50;1.80;;;1.30;;
23400;SDS011;11873;49.300;8.920;2022-11-04T07:35:50;1.60;;;1.43;;
23400;SDS011;11873;49.300;8.920;2022-11-04T07:40:50;2.80;;;1.98;;
23400;SDS011;11873;49.300;8.920;2022-11-04T07:45:58;2.50;;;1.50;;
23400;SDS011;11873;49.300;8.920;2022-11-04T07:50:58;2.67;;;2.37;;
23400;SDS011;11873;49.300;8.920;2022-11-04T07:56:02;3.90;;;1.60;;
23400;SDS011;11873;49.300;8.920;2022-11-04T08:01:03;7.03;;;4.33;;
23400;SDS011;11873;49.300;8.920;2022-11-04T08:06:05;4.73;;;2.80;;
23400;SDS011;11873;49.300;8.920;2022-11-04T08:11:07;5.57;;;2.77;;
23400;SDS011;11873;49.300;8.920;2022-11-04T08:16:12;2.90;;;2.60;;
23400;SDS011;11873;49.300;8.920;2022-11-04T08:21:13;3.53;;;1.97;;
23400;SDS011;11873;49.300;8.920;2022-11-04T08:26:17;3.42;;;2.12;;
23400;SDS011;11873;49.300;8.920;2022-11-04T08:31:19;1.67;;;1.50;;
23400;SDS011;11873;49.300;8.920;2022-11-04T08:41:21;4.00;;;2.67;;
23400;SDS011;11873;49.300;8.920;2022-11-04T08:46:21;2.30;;;2.10;;
23400;SDS011;11873;49.300;8.920;2022-11-04T08:51:23;2.87;;;2.30;;
23400;SDS011;11873;49.300;8.920;2022-11-04T08:56:27;2.83;;;2.20;;
23400;SDS011;11873;49.300;8.920;2022-11-04T09:01:29;2.03;;;1.60;;
23400;SDS011;11873;49.300;8.920;2022-11-04T09:06:31;2.13;;;1.70;;
23400;SDS011;11873;49.300;8.920;2022-11-04T09:11:32;1.60;;;1.27;;
23400;SDS011;11873;49.300;8.920;2022-11-04T09:16:34;3.07;;;1.80;;
23400;SDS011;11873;49.300;8.920;2022-11-04T09:21:35;2.43;;;1.47;;
23400;SDS011;11873;49.300;8.920;2022-11-04T09:26:35;4.00;;;1.60;;
23400;SDS011;11873;49.300;8.920;2022-11-04T09:31:35;2.33;;;1.67;;
23400;SDS011;11873;49.300;8.920;2022-11-04T09:36:36;5.27;;;2.00;;
23400;SDS011;11873;49.300;8.920;2022-11-04T09:41:50;2.43;;;1.67;;
23400;SDS011;11873;49.300;8.920;2022-11-04T09:46:54;3.00;;;1.57;;
23400;SDS011;11873;49.300;8.920;2022-11-04T09:51:56;4.13;;;1.50;;
23400;SDS011;11873;49.300;8.920;2022-11-04T09:56:58;1.63;;;1.30;;
23400;SDS011;11873;49.300;8.920;2022-11-04T10:17:29;3.17;;;1.50;;
23400;SDS011;11873;49.300;8.920;2022-11-04T10:27:58;2.20;;;1.20;;
23400;SDS011;11873;49.300;8.920;2022-11-04T10:43:32;4.10;;;1.50;;
23400;SDS011;11873;49.300;8.920;2022-11-04T10:48:35;1.33;;;1.13;;
23400;SDS011;11873;49.300;8.920;2022-11-04T10:53:36;2.63;;;1.80;;
23400;SDS011;11873;49.300;8.920;2022-11-04T10:58:39;2.57;;;1.90;;
23400;SDS011;11873;49.300;8.920;2022-11-04T11:03:41;1.70;;;1.17;;
23400;SDS011;11873;49.300;8.920;2022-11-04T11:08:42;1.93;;;1.70;;
23400;SDS011;11873;49.300;8.920;2022-11-04T11:13:43;2.03;;;1.33;;
23400;SDS011;11873;49.300;8.920;2022-11-04T11:18:44;2.37;;;1.20;;
23400;SDS011;11873;49.300;8.920;2022-11-04T11:23:45;1.70;;;1.37;;
23400;SDS011;11873;49.300;8.920;2022-11-04T11:28:52;1.63;;;1.30;;
23400;SDS011;11873;49.300;8.920;2022-11-04T11:33:56;1.07;;;0.97;;
23400;SDS011;11873;49.300;8.920;2022-11-04T11:39:03;2.07;;;1.33;;
23400;SDS011;11873;49.300;8.920;2022-11-04T11:44:16;1.53;;;1.10;;
23400;SDS011;11873;49.300;8.920;2022-11-04T11:49:21;1.17;;;1.13;;
23400;SDS011;11873;49.300;8.920;2022-11-04T11:54:29;2.37;;;1.40;;
23400;SDS011;11873;49.300;8.920;2022-11-04T11:59:41;1.40;;;1.30;;
23400;SDS011;11873;49.300;8.920;2022-11-04T12:04:43;3.27;;;1.30;;
23400;SDS011;11873;49.300;8.920;2022-11-04T12:14:56;2.73;;;1.23;;
23400;SDS011;11873;49.300;8.920;2022-11-04T12:20:02;4.57;;;2.20;;
23400;SDS011;11873;49.300;8.920;2022-11-04T12:25:12;2.60;;;1.20;;
23400;SDS011;11873;49.300;8.920;2022-11-04T12:30:16;1.00;;;0.90;;
23400;SDS011;11873;49.300;8.920;2022-11-04T12:35:23;1.30;;;0.80;;
23400;SDS011;11873;49.300;8.920;2022-11-04T12:56:01;2.00;;;1.10;;
23400;SDS011;11873;49.300;8.920;2022-11-04T13:01:07;2.23;;;1.00;;
23400;SDS011;11873;49.300;8.920;2022-11-04T13:06:14;3.37;;;1.97;;
23400;SDS011;11873;49.300;8.920;2022-11-04T13:11:21;1.73;;;1.00;;
23400;SDS011;11873;49.300;8.920;2022-11-04T13:16:22;1.83;;;0.93;;
23400;SDS011;11873;49.300;8.920;2022-11-04T13:21:23;2.43;;;1.03;;
23400;SDS011;11873;49.300;8.920;2022-11-04T13:26:25;2.83;;;1.10;;
23400;SDS011;11873;49.300;8.920;2022-11-04T13:36:57;2.03;;;1.07;;
23400;SDS011;11873;49.300;8.920;2022-11-04T13:42:17;4.77;;;1.03;;
23400;SDS011;11873;49.300;8.920;2022-11-04T13:47:21;1.13;;;1.07;;
23400;SDS011;11873;49.300;8.920;2022-11-04T13:52:24;3.63;;;1.50;;
23400;SDS011;11873;49.300;8.920;2022-11-04T13:57:26;1.80;;;1.00;;
23400;SDS011;11873;49.300;8.920;2022-11-04T14:02:46;2.33;;;1.47;;
23400;SDS011;11873;49.300;8.920;2022-11-04T14:13:38;1.53;;;1.30;;
23400;SDS011;11873;49.300;8.920;2022-11-04T14:18:26;3.83;;;1.30;;
23400;SDS011;11873;49.300;8.920;2022-11-04T14:23:27;0.90;;;0.80;;
23400;SDS011;11873;49.300;8.920;2022-11-04T14:28:28;4.30;;;1.33;;
23400;SDS011;11873;49.300;8.920;2022-11-04T14:38:38;1.70;;;1.07;;
23400;SDS011;11873;49.300;8.920;2022-11-04T14:43:39;0.93;;;0.70;;
23400;SDS011;11873;49.300;8.920;2022-11-04T14:48:41;3.00;;;1.60;;
23400;SDS011;11873;49.300;8.920;2022-11-04T14:53:42;5.30;;;2.70;;
23400;SDS011;11873;49.300;8.920;2022-11-04T14:58:56;2.30;;;1.43;;
23400;SDS011;11873;49.300;8.920;2022-11-04T15:04:02;2.97;;;1.43;;
23400;SDS011;11873;49.300;8.920;2022-11-04T15:09:03;1.10;;;1.00;;
23400;SDS011;11873;49.300;8.920;2022-11-04T15:14:09;1.30;;;1.10;;
23400;SDS011;11873;49.300;8.920;2022-11-04T15:19:13;0.70;;;0.70;;
23400;SDS011;11873;49.300;8.920;2022-11-04T15:24:17;0.97;;;0.90;;
23400;SDS011;11873;49.300;8.920;2022-11-04T15:29:18;4.00;;;2.62;;
23400;SDS011;11873;49.300;8.920;2022-11-04T15:34:19;2.60;;;1.70;;
23400;SDS011;11873;49.300;8.920;2022-11-04T15:39:20;2.63;;;2.17;;
23400;SDS011;11873;49.300;8.920;2022-11-04T15:44:22;3.07;;;1.77;;
23400;SDS011;11873;49.300;8.920;2022-11-04T15:49:24;8.33;;;4.63;;
23400;SDS011;11873;49.300;8.920;2022-11-04T15:54:32;10.43;;;6.73;;
23400;SDS011;11873;49.300;8.920;2022-11-04T15:59:33;23.77;;;7.87;;
23400;SDS011;11873;49.300;8.920;2022-11-04T16:04:35;11.77;;;7.47;;
23400;SDS011;11873;49.300;8.920;2022-11-04T16:09:45;12.63;;;5.07;;
23400;SDS011;11873;49.300;8.920;2022-11-04T16:14:57;5.40;;;3.87;;
23400;SDS011;11873;49.300;8.920;2022-11-04T16:19:59;7.73;;;4.70;;
23400;SDS011;11873;49.300;8.920;2022-11-04T16:25:00;26.53;;;18.73;;
23400;SDS011;11873;49.300;8.920;2022-11-04T16:35:26;21.03;;;16.97;;
23400;SDS011;11873;49.300;8.920;2022-11-04T16:40:26;26.87;;;23.17;;
23400;SDS011;11873;49.300;8.920;2022-11-04T16:45:34;11.17;;;9.90;;
23400;SDS011;11873;49.300;8.920;2022-11-04T16:50:35;15.60;;;13.67;;
23400;SDS011;11873;49.300;8.920;2022-11-04T16:55:37;27.17;;;18.13;;
23400;SDS011;11873;49.300;8.920;2022-11-04T17:00:38;10.87;;;6.13;;
23400;SDS011;11873;49.300;8.920;2022-11-04T17:05:38;11.43;;;8.67;;
23400;SDS011;11873;49.300;8.920;2022-11-04T17:10:38;12.13;;;9.37;;
23400;SDS011;11873;49.300;8.920;2022-11-04T17:15:39;11.15;;;8.25;;
23400;SDS011;11873;49.300;8.920;2022-11-04T17:20:39;5.23;;;3.80;;
23400;SDS011;11873;49.300;8.920;2022-11-04T17:25:40;1.60;;;1.50;;
23400;SDS011;11873;49.300;8.920;2022-11-04T17:30:41;2.17;;;1.40;;
23400;SDS011;11873;49.300;8.920;2022-11-04T17:35:42;1.77;;;1.47;;
23400;SDS011;11873;49.300;8.920;2022-11-04T17:40:43;1.70;;;1.07;;
23400;SDS011;11873;49.300;8.920;2022-11-04T17:45:43;1.10;;;1.00;;
23400;SDS011;11873;49.300;8.920;2022-11-04T17:50:43;0.90;;;0.90;;
23400;SDS011;11873;49.300;8.920;2022-11-04T17:55:44;2.47;;;1.03;;
23400;SDS011;11873;49.300;8.920;2022-11-04T18:00:44;1.83;;;1.13;;
23400;SDS011;11873;49.300;8.920;2022-11-04T18:05:44;1.73;;;1.53;;
23400;SDS011;11873;49.300;8.920;2022-11-04T18:10:47;4.97;;;4.13;;
23400;SDS011;11873;49.300;8.920;2022-11-04T18:15:47;3.50;;;2.60;;
23400;SDS011;11873;49.300;8.920;2022-11-04T18:20:47;2.27;;;2.00;;
23400;SDS011;11873;49.300;8.920;2022-11-04T18:25:47;3.03;;;2.83;;
23400;SDS011;11873;49.300;8.920;2022-11-04T18:30:47;4.37;;;3.97;;
23400;SDS011;11873;49.300;8.920;2022-11-04T18:35:48;7.87;;;6.33;;
23400;SDS011;11873;49.300;8.920;2022-11-04T18:40:48;6.07;;;4.67;;
23400;SDS011;11873;49.300;8.920;2022-11-04T18:45:48;5.67;;;4.40;;
23400;SDS011;11873;49.300;8.920;2022-11-04T18:50:48;10.20;;;6.83;;
23400;SDS011;11873;49.300;8.920;2022-11-04T18:55:49;11.67;;;8.03;;
23400;SDS011;11873;49.300;8.920;2022-11-04T19:00:49;4.60;;;3.60;;
23400;SDS011;11873;49.300;8.920;2022-11-04T19:05:49;3.57;;;3.20;;
23400;SDS011;11873;49.300;8.920;2022-11-04T19:10:49;4.57;;;3.77;;
23400;SDS011;11873;49.300;8.920;2022-11-04T19:15:49;5.93;;;3.20;;
23400;SDS011;11873;49.300;8.920;2022-11-04T19:20:49;3.90;;;3.50;;
23400;SDS011;11873;49.300;8.920;2022-11-04T19:25:50;2.90;;;2.60;;
23400;SDS011;11873;49.300;8.920;2022-11-04T19:30:57;3.20;;;2.90;;
23400;SDS011;11873;49.300;8.920;2022-11-04T19:35:58;3.97;;;2.40;;
23400;SDS011;11873;49.300;8.920;2022-11-04T19:41:02;6.83;;;5.03;;
23400;SDS011;11873;49.300;8.920;2022-11-04T19:46:03;9.43;;;5.00;;
23400;SDS011;11873;49.300;8.920;2022-11-04T19:51:03;6.10;;;3.33;;
23400;SDS011;11873;49.300;8.920;2022-11-04T19:56:04;3.37;;;2.83;;
23400;SDS011;11873;49.300;8.920;2022-11-04T20:01:05;4.87;;;3.60;;
23400;SDS011;11873;49.300;8.920;2022-11-04T20:06:06;4.83;;;3.57;;
23400;SDS011;11873;49.300;8.920;2022-11-04T20:11:06;5.37;;;3.60;;
23400;SDS011;11873;49.300;8.920;2022-11-04T20:16:12;3.43;;;2.40;;
23400;SDS011;11873;49.300;8.920;2022-11-04T20:21:13;4.10;;;2.90;;
23400;SDS011;11873;49.300;8.920;2022-11-04T20:26:17;5.37;;;3.70;;
23400;SDS011;11873;49.300;8.920;2022-11-04T20:31:18;5.07;;;4.27;;
23400;SDS011;11873;49.300;8.920;2022-11-04T20:36:19;4.00;;;3.63;;
23400;SDS011;11873;49.300;8.920;2022-11-04T20:41:20;7.90;;;5.73;;
23400;SDS011;11873;49.300;8.920;2022-11-04T20:46:21;9.50;;;6.03;;
23400;SDS011;11873;49.300;8.920;2022-11-04T20:51:22;11.60;;;6.07;;
23400;SDS011;11873;49.300;8.920;2022-11-04T20:56:23;9.40;;;7.27;;
23400;SDS011;11873;49.300;8.920;2022-11-04T21:01:24;8.27;;;4.00;;
23400;SDS011;11873;49.300;8.920;2022-11-04T21:06:25;4.30;;;3.90;;
23400;SDS011;11873;49.300;8.920;2022-11-04T21:11:25;2.90;;;2.70;;
23400;SDS011;11873;49.300;8.920;2022-11-04T21:16:26;3.50;;;2.50;;
23400;SDS011;11873;49.300;8.920;2022-11-04T21:21:26;3.90;;;3.10;;
23400;SDS011;11873;49.300;8.920;2022-11-04T21:26:27;7.27;;;5.20;;
23400;SDS011;11873;49.300;8.920;2022-11-04T21:31:28;5.37;;;4.20;;
23400;SDS011;11873;49.300;8.920;2022-11-04T21:36:29;5.07;;;4.57;;
23400;SDS011;11873;49.300;8.920;2022-11-04T21:41:30;6.00;;;5.20;;
23400;SDS011;11873;49.300;8.920;2022-11-04T21:46:31;7.27;;;5.17;;
23400;SDS011;11873;49.300;8.920;2022-11-04T21:51:31;4.80;;;4.23;;
23400;SDS011;11873;49.300;8.920;2022-11-04T21:56:33;5.57;;;4.30;;
23400;SDS011;11873;49.300;8.920;2022-11-04T22:01:33;4.90;;;4.40;;
23400;SDS011;11873;49.300;8.920;2022-11-04T22:06:33;4.67;;;4.27;;
23400;SDS011;11873;49.300;8.920;2022-11-04T22:11:34;11.13;;;7.90;;
23400;SDS011;11873;49.300;8.920;2022-11-04T22:16:35;6.40;;;5.17;;
23400;SDS011;11873;49.300;8.920;2022-11-04T22:21:36;9.87;;;5.97;;
23400;SDS011;11873;49.300;8.920;2022-11-04T22:26:37;9.77;;;6.93;;
23400;SDS011;11873;49.300;8.920;2022-11-04T22:31:39;7.53;;;5.40;;
23400;SDS011;11873;49.300;8.920;2022-11-04T22:36:39;7.63;;;6.00;;
23400;SDS011;11873;49.300;8.920;2022-11-04T22:41:39;9.67;;;6.50;;
23400;SDS011;11873;49.300;8.920;2022-11-04T22:46:39;10.37;;;8.03;;
23400;SDS011;11873;49.300;8.920;2022-11-04T22:51:40;11.70;;;8.40;;
23400;SDS011;11873;49.300;8.920;2022-11-04T22:56:40;11.63;;;7.83;;
23400;SDS011;11873;49.300;8.920;2022-11-04T23:01:40;6.27;;;5.60;;
23400;SDS011;11873;49.300;8.920;2022-11-04T23:06:40;8.53;;;6.00;;
23400;SDS011;11873;49.300;8.920;2022-11-04T23:11:40;5.53;;;4.83;;
23400;SDS011;11873;49.300;8.920;2022-11-04T23:16:41;5.60;;;5.10;;
23400;SDS011;11873;49.300;8.920;2022-11-04T23:21:42;4.27;;;3.97;;
23400;SDS011;11873;49.300;8.920;2022-11-04T23:26:43;4.80;;;4.40;;
23400;SDS011;11873;49.300;8.920;2022-11-04T23:31:44;4.90;;;4.40;;
23400;SDS011;11873;49.300;8.920;2022-11-04T23:36:44;8.00;;;4.30;;
23400;SDS011;11873;49.300;8.920;2022-11-04T23:41:44;5.27;;;4.10;;
23400;SDS011;11873;49.300;8.920;2022-11-04T23:46:44;6.47;;;4.47;;
23400;SDS011;11873;49.300;8.920;2022-11-04T23:51:44;5.10;;;4.03;;
23400;SDS011;11873;49.300;8.920;2022-11-04T23:56:44;3.60;;;3.30;;
